Terminal Aerodrome Forecast
Issued by NWS

Home | Current Version | Previous Version | Text Only | Print | Product List | Glossary On
Versions: 1 2 3 4 5 6 7 8 9 10 11 12 13 14
000
FTUS44 KCRP 050528
TAFLRD
TAF
KLRD 050528Z 0506/0606 14010KT P6SM SKC
     FM050800 14008KT P6SM SCT020
      TEMPO 0510/0514 BKN020
     FM051400 15015G22KT P6SM SCT035
     FM060300 12011KT P6SM SKC=

USA.gov is the U.S. government's official web portal to all federal, state and local government web resources and services.